N.dadayli — TCCW7 — position and weather

sailwx.info

Track history (hours):
 
Tides and Currents Weather Stations Pressure Air Temp Water Temp Dewpoint Dewpoint Depression Visibility Wind Speed Wind Dir Waves Ship Positions

N.dadayli

Last reported at 2014-Jul-24 04:22 UTC. Time now 2014-Jul-24 05:59 UTC.
Position N 51°42' E 004°35'.

Length 101 m; draft 7.8 m.

Type: Ship. MMSI: 271000768.

Date/timePositionNaut miles runAvg speedWind from/ knotsBaromVisibWave heightAir tempDewpointWater temp
2014-Jul-24 04:22N 51°42' E 004°35'0 0.0
2014-Jul-24 03:28N 51°42' E 004°35'0 0.0
2014-Jul-24 02:31N 51°42' E 004°35'0 0.0
2014-Jul-24 01:31N 51°42' E 004°35'0 0.0
2014-Jul-24 00:28N 51°42' E 004°35'0 0.0
2014-Jul-23 23:31N 51°42' E 004°35'0 0.0
2014-Jul-23 22:31N 51°42' E 004°35'0 0.0
2014-Jul-23 21:19N 51°42' E 004°35'0 0.0
2014-Jul-23 20:28N 51°42' E 004°35'0 0.0
2014-Jul-23 19:31N 51°42' E 004°35'0 0.0
2014-Jul-23 18:28N 51°42' E 004°35'0 0.0
2014-Jul-23 17:28N 51°42' E 004°35'0 0.0
2014-Jul-23 16:31N 51°42' E 004°35'0 0.0
2014-Jul-23 15:25N 51°42' E 004°35'0 0.0
2014-Jul-23 14:31N 51°42' E 004°35'0 0.0
2014-Jul-23 13:16N 51°42' E 004°35'0 0.0
2014-Jul-23 12:31N 51°42' E 004°35'0 0.0
2014-Jul-23 11:16N 51°42' E 004°35'0 0.0
2014-Jul-23 10:16N 51°42' E 004°35'0 0.0
2014-Jul-23 09:31N 51°42' E 004°35'0 0.0
2014-Jul-23 08:25N 51°42' E 004°35'0 0.0
2014-Jul-23 07:25N 51°42' E 004°35'0 0.0
2014-Jul-23 06:28N 51°42' E 004°35'0 0.0
2014-Jul-23 05:31N 51°42' E 004°35'0 0.0
2014-Jul-23 04:25N 51°42' E 004°35'0 0.0
2014-Jul-23 03:22N 51°42' E 004°35'0 0.0
2014-Jul-23 02:29N 51°42' E 004°35'0 0.0
2014-Jul-23 01:22N 51°42' E 004°35'0 0.0
2014-Jul-23 00:31N 51°42' E 004°35'0 0.0
2014-Jul-22 23:31N 51°42' E 004°35'0 0.0
2014-Jul-22 22:28N 51°42' E 004°35'0 0.0
2014-Jul-22 21:25N 51°42' E 004°35'0 0.0
2014-Jul-22 20:31N 51°42' E 004°35'0 0.0
2014-Jul-22 19:28N 51°42' E 004°35'0 0.0
2014-Jul-22 18:28N 51°42' E 004°35'0 0.0
2014-Jul-22 17:28N 51°42' E 004°35'0 0.0
2014-Jul-22 16:19N 51°42' E 004°35'0 0.0
2014-Jul-22 15:25N 51°42' E 004°35'0 0.0
2014-Jul-22 14:22N 51°42' E 004°35'0 0.6
2014-Jul-22 13:33N 51°42' E 004°36'7 6.6
2014-Jul-22 12:33N 51°48' E 004°35'10 9.8
2014-Jul-22 11:33N 51°52' E 004°20'1010.3
2014-Jul-22 10:33N 51°58' E 004°07'1111.3
2014-Jul-22 09:33N 52°00' E 003°49'1110.7
2014-Jul-22 08:33N 51°57' E 003°33'1111.2
2014-Jul-22 07:33N 51°54' E 003°15'1010.2
2014-Jul-22 06:33N 51°51' E 002°59'12 9.3
2014-Jul-22 05:14N 51°46' E 002°41'6 8.4
2014-Jul-22 04:33N 51°43' E 002°33'9 9.1
2014-Jul-22 03:33N 51°36' E 002°24'10 9.7
2014-Jul-22 02:33N 51°29' E 002°13'10 9.9
2014-Jul-22 01:31N 51°19' E 002°06'1010.2
2014-Jul-22 00:33N 51°11' E 001°58'1111.1
2014-Jul-21 23:33N 51°05' E 001°43'1312.4
2014-Jul-21 22:32N 50°56' E 001°28'3212.0
2014-Jul-21 19:53N 50°31' E 000°58'411.8
2014-Jul-21 19:33N 50°29' E 000°53'1212.1
2014-Jul-21 18:33N 50°26' E 000°35'1412.6
2014-Jul-21 17:28N 50°22' E 000°14'  
2014-Jul-18 10:32N 38°20' W 009°45'1111.6
2014-Jul-18 09:33N 38°10' W 009°41'1211.6
2014-Jul-18 08:33N 37°58' W 009°37'1211.5
2014-Jul-18 07:33N 37°47' W 009°35'1211.7
2014-Jul-18 06:31N 37°35' W 009°31'3211.0
2014-Jul-18 03:33N 37°04' W 009°22'1010.3
2014-Jul-18 02:33N 36°54' W 009°19'1010.3
2014-Jul-18 01:33N 36°46' W 009°10'12 9.9
2014-Jul-18 00:23N 36°42' W 008°57'910.5
2014-Jul-17 23:32N 36°39' W 008°46'2310.5
2014-Jul-17 21:20N 36°33' W 008°18'29510.9
2014-Jul-16 18:17N 36°15' W 002°13'912.2
2014-Jul-16 17:33N 36°17' W 002°02'1211.6
2014-Jul-16 16:33N 36°19' W 001°48'5012.1
2014-Jul-16 12:27N 36°29' W 000°47'3311.3
2014-Jul-16 09:33N 36°34' W 000°07'1211.3
2014-Jul-16 08:31N 36°36' E 000°08'5011.5
2014-Jul-16 04:08N 36°44' E 001°09'611.1
2014-Jul-16 03:33N 36°45' E 001°17'1211.2
2014-Jul-16 02:29N 36°48' E 001°32'1010.9
2014-Jul-16 01:33N 36°50' E 001°44'2510.3
2014-Jul-15 23:07N 36°54' E 002°15'1810.6
2014-Jul-15 21:24N 36°56' E 002°38'911.0
2014-Jul-15 20:33N 36°58' E 002°50'  
Track history (hours):
 
Tides and Currents Weather Stations Pressure Air Temp Water Temp Dewpoint Dewpoint Depression Visibility Wind Speed Wind Dir Waves Ship Positions

N.dadayli

Last reported at 2014-Jul-24 04:22 UTC. Time now 2014-Jul-24 05:59 UTC.
Position N 51°42' E 004°35'.

Length 101 m; draft 7.8 m.

Type: Ship. MMSI: 271000768.

Date/timePositionNaut miles runAvg speedWind from/ knotsBaromVisibWave heightAir tempDewpointWater temp
2014-Jul-24 04:22N 51°42' E 004°35'0 0.0
2014-Jul-24 03:28N 51°42' E 004°35'0 0.0
2014-Jul-24 02:31N 51°42' E 004°35'0 0.0
2014-Jul-24 01:31N 51°42' E 004°35'0 0.0
2014-Jul-24 00:28N 51°42' E 004°35'0 0.0
2014-Jul-23 23:31N 51°42' E 004°35'0 0.0
2014-Jul-23 22:31N 51°42' E 004°35'0 0.0
2014-Jul-23 21:19N 51°42' E 004°35'0 0.0
2014-Jul-23 20:28N 51°42' E 004°35'0 0.0
2014-Jul-23 19:31N 51°42' E 004°35'0 0.0
2014-Jul-23 18:28N 51°42' E 004°35'0 0.0
2014-Jul-23 17:28N 51°42' E 004°35'0 0.0
2014-Jul-23 16:31N 51°42' E 004°35'0 0.0
2014-Jul-23 15:25N 51°42' E 004°35'0 0.0
2014-Jul-23 14:31N 51°42' E 004°35'0 0.0
2014-Jul-23 13:16N 51°42' E 004°35'0 0.0
2014-Jul-23 12:31N 51°42' E 004°35'0 0.0
2014-Jul-23 11:16N 51°42' E 004°35'0 0.0
2014-Jul-23 10:16N 51°42' E 004°35'0 0.0
2014-Jul-23 09:31N 51°42' E 004°35'0 0.0
2014-Jul-23 08:25N 51°42' E 004°35'0 0.0
2014-Jul-23 07:25N 51°42' E 004°35'0 0.0
2014-Jul-23 06:28N 51°42' E 004°35'0 0.0
2014-Jul-23 05:31N 51°42' E 004°35'0 0.0
2014-Jul-23 04:25N 51°42' E 004°35'0 0.0
2014-Jul-23 03:22N 51°42' E 004°35'0 0.0
2014-Jul-23 02:29N 51°42' E 004°35'0 0.0
2014-Jul-23 01:22N 51°42' E 004°35'0 0.0
2014-Jul-23 00:31N 51°42' E 004°35'0 0.0
2014-Jul-22 23:31N 51°42' E 004°35'0 0.0
2014-Jul-22 22:28N 51°42' E 004°35'0 0.0
2014-Jul-22 21:25N 51°42' E 004°35'0 0.0
2014-Jul-22 20:31N 51°42' E 004°35'0 0.0
2014-Jul-22 19:28N 51°42' E 004°35'0 0.0
2014-Jul-22 18:28N 51°42' E 004°35'0 0.0
2014-Jul-22 17:28N 51°42' E 004°35'0 0.0
2014-Jul-22 16:19N 51°42' E 004°35'0 0.0
2014-Jul-22 15:25N 51°42' E 004°35'0 0.0
2014-Jul-22 14:22N 51°42' E 004°35'0 0.6
2014-Jul-22 13:33N 51°42' E 004°36'7 6.6
2014-Jul-22 12:33N 51°48' E 004°35'10 9.8
2014-Jul-22 11:33N 51°52' E 004°20'1010.3
2014-Jul-22 10:33N 51°58' E 004°07'1111.3
2014-Jul-22 09:33N 52°00' E 003°49'1110.7
2014-Jul-22 08:33N 51°57' E 003°33'1111.2
2014-Jul-22 07:33N 51°54' E 003°15'1010.2
2014-Jul-22 06:33N 51°51' E 002°59'12 9.3
2014-Jul-22 05:14N 51°46' E 002°41'6 8.4
2014-Jul-22 04:33N 51°43' E 002°33'9 9.1
2014-Jul-22 03:33N 51°36' E 002°24'10 9.7
2014-Jul-22 02:33N 51°29' E 002°13'10 9.9
2014-Jul-22 01:31N 51°19' E 002°06'1010.2
2014-Jul-22 00:33N 51°11' E 001°58'1111.1
2014-Jul-21 23:33N 51°05' E 001°43'1312.4
2014-Jul-21 22:32N 50°56' E 001°28'3212.0
2014-Jul-21 19:53N 50°31' E 000°58'411.8
2014-Jul-21 19:33N 50°29' E 000°53'1212.1
2014-Jul-21 18:33N 50°26' E 000°35'1412.6
2014-Jul-21 17:28N 50°22' E 000°14'  
2014-Jul-18 10:32N 38°20' W 009°45'1111.6
2014-Jul-18 09:33N 38°10' W 009°41'1211.6
2014-Jul-18 08:33N 37°58' W 009°37'1211.5
2014-Jul-18 07:33N 37°47' W 009°35'1211.7
2014-Jul-18 06:31N 37°35' W 009°31'3211.0
2014-Jul-18 03:33N 37°04' W 009°22'1010.3
2014-Jul-18 02:33N 36°54' W 009°19'1010.3
2014-Jul-18 01:33N 36°46' W 009°10'12 9.9
2014-Jul-18 00:23N 36°42' W 008°57'910.5
2014-Jul-17 23:32N 36°39' W 008°46'2310.5
2014-Jul-17 21:20N 36°33' W 008°18'29510.9
2014-Jul-16 18:17N 36°15' W 002°13'912.2
2014-Jul-16 17:33N 36°17' W 002°02'1211.6
2014-Jul-16 16:33N 36°19' W 001°48'5012.1
2014-Jul-16 12:27N 36°29' W 000°47'3311.3
2014-Jul-16 09:33N 36°34' W 000°07'1211.3
2014-Jul-16 08:31N 36°36' E 000°08'5011.5
2014-Jul-16 04:08N 36°44' E 001°09'611.1
2014-Jul-16 03:33N 36°45' E 001°17'1211.2
2014-Jul-16 02:29N 36°48' E 001°32'1010.9
2014-Jul-16 01:33N 36°50' E 001°44'2510.3
2014-Jul-15 23:07N 36°54' E 002°15'1810.6
2014-Jul-15 21:24N 36°56' E 002°38'911.0
2014-Jul-15 20:33N 36°58' E 002°50'  

Dump ship's entire track history